KHDO

South Texas Regional at Hondo Airport

Hondo, Texas, USA
METAR KHDO 231051Z AUTO 36007KT 10SM CLR M01/M08 A3022 RMK AO2 SLP230 T10111078
Observed Flight Rules
Jan-23 @ 10:51 UTC (an hour ago) Visual Flight Rules
Wind Visibility Clouds
360° at 7 knots 10 miles
  • Clear skies
Temperatures Readings
Current -1°C / 30°F
Dewpoint -8°C / 18°F
Humidity 59%
Altimeter 30.22" Hg
Pressure 1023 hPa
Elevation 282
METAR KHDO 231051Z AUTO 36007KT 10SM CLR M01/M08 A3022 RMK AO2 SLP230 T10111078
Observed Flight Rules
Jan-23 @ 10:51 UTC
(an hour ago)
VFR
Wind Visibility
360° at 7 knots 10 miles
Clouds
  • Clear skies
Temperature Dewpoint
-1°C / 30°F -8°C / 18°F
Humidity Altimeter Pressure
59% 30.22" Hg 1023 hPa